createdAt,value
2022-07-25T00:02:11.383Z,9.77
2022-07-25T00:05:18.787Z,8.57
2022-07-25T00:08:23.813Z,9.75
2022-07-25T00:11:28.774Z,10.20
2022-07-25T00:14:36.555Z,8.18
2022-07-25T00:17:41.855Z,8.15
2022-07-25T00:20:46.902Z,8.63
2022-07-25T00:23:52.138Z,10.80
2022-07-25T00:26:57.432Z,13.63
2022-07-25T00:30:08.743Z,10.85
2022-07-25T00:33:13.762Z,14.70
2022-07-25T00:36:19.001Z,13.20
2022-07-25T00:39:24.032Z,12.88
2022-07-25T00:42:29.092Z,15.55
2022-07-25T00:45:36.790Z,15.90
2022-07-25T00:48:42.276Z,15.18
2022-07-25T00:51:47.798Z,15.07
2022-07-25T00:54:52.845Z,11.98
2022-07-25T00:57:57.872Z,15.73
2022-07-25T01:01:06.634Z,14.65
2022-07-25T01:04:12.654Z,12.40
2022-07-25T01:07:18.081Z,12.10
2022-07-25T01:10:23.673Z,23.10
2022-07-25T01:13:28.815Z,12.23
2022-07-25T01:16:36.483Z,11.75
2022-07-25T01:19:41.743Z,13.80
2022-07-25T01:22:49.888Z,12.43
2022-07-25T01:25:55.118Z,11.57
2022-07-25T01:29:00.405Z,15.48
2022-07-25T01:32:05.523Z,14.43
2022-07-25T01:35:12.270Z,17.15
2022-07-25T01:38:20.792Z,14.88
2022-07-25T01:41:25.834Z,13.13
2022-07-25T01:44:30.841Z,16.35
2022-07-25T01:47:35.873Z,13.43
2022-07-25T01:50:40.977Z,12.82
2022-07-25T01:53:48.775Z,18.17
2022-07-25T01:56:53.839Z,16.27
2022-07-25T01:59:58.934Z,14.70
2022-07-25T02:03:19.258Z,14.38
2022-07-25T02:06:24.271Z,14.88
2022-07-25T02:09:31.961Z,15.57
2022-07-25T02:12:37.260Z,15.32
2022-07-25T02:15:42.473Z,14.77
2022-07-25T02:18:48.567Z,16.17
2022-07-25T02:21:53.894Z,16.98
2022-07-25T02:25:01.511Z,19.02
2022-07-25T02:28:07.063Z,15.52
2022-07-25T02:31:15.710Z,15.25
2022-07-25T02:34:20.790Z,12.95
2022-07-25T02:37:25.814Z,12.63
2022-07-25T02:40:33.418Z,15.32
2022-07-25T02:43:38.449Z,14.93
2022-07-25T02:46:43.469Z,14.50
2022-07-25T02:49:50.003Z,15.35
2022-07-25T02:52:54.937Z,14.73
2022-07-25T02:56:02.572Z,19.60
2022-07-25T02:59:07.615Z,17.48
2022-07-25T03:02:12.689Z,14.48
2022-07-25T03:05:19.382Z,13.50
2022-07-25T03:08:24.414Z,14.68
2022-07-25T03:11:32.041Z,14.23
2022-07-25T03:14:37.433Z,12.40
2022-07-25T03:17:42.668Z,15.30
2022-07-25T03:20:47.780Z,12.25
2022-07-25T03:23:53.048Z,17.10
2022-07-25T03:27:00.670Z,14.68
2022-07-25T03:30:06.258Z,15.20
2022-07-25T03:33:11.367Z,13.77
2022-07-25T03:36:16.575Z,14.30
2022-07-25T03:39:21.922Z,15.32
2022-07-25T03:42:34.976Z,12.10
2022-07-25T03:45:40.756Z,22.05
2022-07-25T03:48:51.311Z,19.40
2022-07-25T03:51:56.348Z,14.93
2022-07-25T03:55:03.038Z,14.55
2022-07-25T03:58:10.733Z,16.40
2022-07-25T04:01:15.802Z,12.93
2022-07-25T04:04:22.463Z,15.55
2022-07-25T04:07:27.645Z,12.48
2022-07-25T04:10:34.478Z,13.85
2022-07-25T04:13:42.324Z,12.88
2022-07-25T04:16:47.477Z,18.52
2022-07-25T04:19:52.492Z,11.77
2022-07-25T04:22:57.629Z,15.77
2022-07-25T04:26:03.025Z,16.10
2022-07-25T04:29:10.637Z,13.32
2022-07-25T04:32:20.188Z,17.48
2022-07-25T04:35:28.219Z,14.85
2022-07-25T04:38:33.441Z,20.42
2022-07-25T04:41:38.478Z,15.98
2022-07-25T04:44:46.009Z,14.02
2022-07-25T04:47:50.995Z,18.60
2022-07-25T04:50:56.233Z,15.32
2022-07-25T04:54:01.261Z,16.15
2022-07-25T04:57:06.678Z,14.20
2022-07-25T05:00:15.814Z,24.00
2022-07-25T05:03:21.546Z,14.05
2022-07-25T05:06:26.644Z,17.13
2022-07-25T05:09:31.820Z,15.13
2022-07-25T05:12:36.950Z,19.58
2022-07-25T05:15:44.567Z,12.95
2022-07-25T05:18:49.589Z,18.05
2022-07-25T05:21:54.717Z,14.38
2022-07-25T05:25:02.440Z,17.73
2022-07-25T05:28:07.988Z,12.90
2022-07-25T05:31:15.751Z,15.85
2022-07-25T05:34:20.800Z,18.58
2022-07-25T05:37:26.099Z,13.65
2022-07-25T05:40:31.160Z,13.30
2022-07-25T05:43:36.194Z,17.08
2022-07-25T05:46:43.927Z,15.10
2022-07-25T05:49:49.015Z,16.17
2022-07-25T05:52:54.083Z,16.45
2022-07-25T05:55:59.283Z,13.32
2022-07-25T05:59:04.353Z,11.13
2022-07-25T06:02:12.544Z,11.90
2022-07-25T06:05:20.251Z,13.20
2022-07-25T06:08:25.236Z,16.88
2022-07-25T06:11:31.618Z,15.40
2022-07-25T06:14:37.366Z,17.67
2022-07-25T06:17:45.208Z,17.20
2022-07-25T06:20:50.435Z,16.30
2022-07-25T06:23:55.751Z,15.50
2022-07-25T06:27:00.848Z,11.98
2022-07-25T06:30:18.779Z,15.38
2022-07-25T06:33:27.630Z,14.00
2022-07-25T06:36:33.168Z,16.98
2022-07-25T06:39:40.404Z,9.52
2022-07-25T06:42:49.941Z,13.35
2022-07-25T06:45:55.027Z,17.23
2022-07-25T06:49:03.207Z,15.60
2022-07-25T06:52:09.086Z,13.13
2022-07-25T06:55:15.342Z,11.55
2022-07-25T06:58:22.829Z,10.02
2022-07-25T07:01:31.197Z,8.80
2022-07-25T07:04:38.982Z,15.75
2022-07-25T07:07:47.635Z,13.60
2022-07-25T07:10:53.136Z,10.85
2022-07-25T07:13:58.258Z,15.15
2022-07-25T07:17:03.405Z,13.85
2022-07-25T07:20:12.755Z,11.38
2022-07-25T07:23:18.885Z,23.00
2022-07-25T07:26:24.789Z,12.57
2022-07-25T07:29:29.767Z,11.45
2022-07-25T07:32:34.970Z,9.85
2022-07-25T07:35:42.884Z,11.02
2022-07-25T07:38:48.497Z,9.98
2022-07-25T07:41:56.319Z,9.75
2022-07-25T07:45:01.470Z,14.23
2022-07-25T07:48:07.104Z,12.30
2022-07-25T07:51:14.694Z,15.07
2022-07-25T07:54:32.373Z,10.95
2022-07-25T07:57:38.143Z,10.68
2022-07-25T08:00:43.294Z,13.48
2022-07-25T08:03:48.470Z,9.43
2022-07-25T08:06:56.106Z,9.73
2022-07-25T08:10:01.166Z,11.20
2022-07-25T08:13:14.812Z,10.50
2022-07-25T08:16:20.016Z,19.95
2022-07-25T08:19:25.300Z,14.68
2022-07-25T08:22:41.895Z,10.40
2022-07-25T08:25:48.345Z,7.55
2022-07-25T08:29:17.057Z,14.88
2022-07-25T08:32:18.549Z,10.45
2022-07-25T08:35:24.680Z,14.95
2022-07-25T08:38:32.561Z,13.23
2022-07-25T08:41:37.894Z,12.95
2022-07-25T08:44:46.703Z,10.32
2022-07-25T08:47:53.205Z,16.83
2022-07-25T08:50:59.824Z,9.80
2022-07-25T08:54:08.611Z,15.00
2022-07-25T08:57:13.775Z,14.07
2022-07-25T09:00:21.379Z,10.65
2022-07-25T09:03:26.483Z,12.10
2022-07-25T09:06:31.563Z,9.73
2022-07-25T09:09:41.043Z,12.25
2022-07-25T09:12:54.862Z,8.85
2022-07-25T09:16:00.689Z,11.35
2022-07-25T09:19:10.765Z,7.05
2022-07-25T09:22:15.841Z,5.32
2022-07-25T09:25:29.945Z,6.18
2022-07-25T09:28:35.501Z,9.15
2022-07-25T09:31:45.673Z,5.20
2022-07-25T09:34:53.162Z,6.22
2022-07-25T09:38:12.485Z,7.07
2022-07-25T09:41:22.174Z,5.72
2022-07-25T09:44:32.196Z,4.97
2022-07-25T09:47:42.291Z,8.07
2022-07-25T09:50:47.622Z,3.33
2022-07-25T09:53:52.979Z,7.05
2022-07-25T09:57:00.799Z,3.63
2022-07-25T10:00:08.715Z,5.70
2022-07-25T10:03:24.327Z,5.90
2022-07-25T10:06:41.363Z,2.40
2022-07-25T10:09:48.596Z,5.75
2022-07-25T10:13:11.519Z,4.38
2022-07-25T10:16:22.749Z,7.88
2022-07-25T10:19:50.210Z,5.50
2022-07-25T10:22:57.391Z,3.42
2022-07-25T10:26:10.614Z,5.57
2022-07-25T10:29:19.411Z,3.30
2022-07-25T10:32:35.366Z,6.55
2022-07-25T10:35:40.936Z,4.20
2022-07-25T10:38:49.611Z,3.00
2022-07-25T10:41:55.915Z,1.55
2022-07-25T10:45:09.454Z,5.50
2022-07-25T10:48:23.190Z,8.15
2022-07-25T10:54:38.461Z,3.58
2022-07-25T10:58:07.902Z,8.55
2022-07-25T11:01:11.539Z,5.55
2022-07-25T11:04:18.539Z,2.55
2022-07-25T11:07:23.469Z,5.70
2022-07-25T11:10:30.220Z,3.70
2022-07-25T11:13:40.219Z,3.13
2022-07-25T11:16:48.855Z,2.60
2022-07-25T11:19:59.706Z,9.40
2022-07-25T11:23:04.731Z,21.38
2022-07-25T11:26:14.622Z,3.25
2022-07-25T11:29:24.397Z,7.22
2022-07-25T11:32:41.777Z,14.18
2022-07-25T11:35:48.240Z,3.42
2022-07-25T11:38:53.979Z,4.18
2022-07-25T11:42:03.556Z,3.78
2022-07-25T11:45:19.595Z,4.18
2022-07-25T11:48:33.917Z,1.80
2022-07-25T11:51:41.830Z,5.70
2022-07-25T11:54:53.925Z,2.63
2022-07-25T11:58:02.320Z,2.58
2022-07-25T12:01:15.295Z,2.53
2022-07-25T12:04:23.787Z,3.73
2022-07-25T12:07:44.676Z,5.13
2022-07-25T12:10:51.649Z,3.53
2022-07-25T12:14:07.142Z,2.45
2022-07-25T12:17:12.195Z,2.70
2022-07-25T12:20:21.890Z,1.60
2022-07-25T12:23:26.868Z,3.75
2022-07-25T12:26:31.819Z,2.80
2022-07-25T12:29:36.800Z,5.35
2022-07-25T12:32:42.041Z,4.88
2022-07-25T12:35:49.655Z,2.97
2022-07-25T12:38:54.595Z,7.05
2022-07-25T12:41:59.677Z,3.70
2022-07-25T12:45:04.914Z,2.63
2022-07-25T12:48:10.371Z,1.48
2022-07-25T12:51:17.965Z,3.78
2022-07-25T12:54:22.931Z,5.63
2022-07-25T12:57:28.307Z,5.25
2022-07-25T13:00:33.417Z,6.07
2022-07-25T13:03:38.390Z,4.88
2022-07-25T13:06:46.115Z,8.02
2022-07-25T13:09:51.087Z,3.65
2022-07-25T13:12:56.361Z,8.43
2022-07-25T13:16:02.052Z,9.25
2022-07-25T13:19:10.304Z,6.63
2022-07-25T13:22:18.226Z,14.88
2022-07-25T13:25:23.143Z,5.28
2022-07-25T13:28:28.114Z,6.80
2022-07-25T13:31:33.106Z,4.25
2022-07-25T13:34:39.465Z,8.57
2022-07-25T13:37:47.132Z,4.57
2022-07-25T13:40:56.897Z,9.90
2022-07-25T13:44:03.744Z,10.95
2022-07-25T13:47:09.184Z,3.47
2022-07-25T13:50:14.198Z,7.25
2022-07-25T13:53:25.509Z,5.65
2022-07-25T13:59:38.842Z,12.57
2022-07-25T14:02:43.872Z,15.88
2022-07-25T14:05:49.032Z,11.63
2022-07-25T14:08:56.733Z,14.20
2022-07-25T14:12:01.749Z,12.85
2022-07-25T14:15:07.432Z,7.68
2022-07-25T14:18:12.434Z,8.63
2022-07-25T14:21:17.391Z,10.73
2022-07-25T14:24:24.984Z,15.00
2022-07-25T14:27:30.122Z,5.22
2022-07-25T14:30:35.102Z,9.85
2022-07-25T14:33:40.639Z,13.02
2022-07-25T14:36:47.751Z,10.45
2022-07-25T14:39:55.392Z,10.63
2022-07-25T14:43:00.342Z,10.05
2022-07-25T14:46:05.276Z,8.07
2022-07-25T14:49:10.986Z,7.13
2022-07-25T14:52:16.790Z,8.15
2022-07-25T14:55:25.829Z,11.20
2022-07-25T14:58:30.880Z,8.52
2022-07-25T15:01:35.914Z,4.75
2022-07-25T15:04:40.995Z,6.20
2022-07-25T15:07:46.028Z,10.95
2022-07-25T15:10:53.556Z,14.23
2022-07-25T15:13:58.518Z,13.65
2022-07-25T15:17:03.543Z,10.82
2022-07-25T15:20:10.182Z,12.68
2022-07-25T15:23:15.115Z,9.32
2022-07-25T15:26:23.007Z,7.68
2022-07-25T15:29:28.694Z,6.70
2022-07-25T15:32:33.633Z,12.85
2022-07-25T15:35:38.599Z,8.43
2022-07-25T15:38:43.799Z,8.40
2022-07-25T15:41:51.660Z,8.23
2022-07-25T15:45:22.176Z,14.27
2022-07-25T15:48:22.137Z,13.90
2022-07-25T15:51:27.146Z,6.93
2022-07-25T15:54:32.175Z,9.32
2022-07-25T15:57:40.096Z,6.97
2022-07-25T16:00:45.285Z,8.90
2022-07-25T16:03:50.467Z,17.48
2022-07-25T16:06:55.503Z,8.70
2022-07-25T16:10:00.437Z,8.73
2022-07-25T16:13:08.235Z,6.95
2022-07-25T16:16:13.344Z,8.35
2022-07-25T16:19:18.355Z,6.82
2022-07-25T16:22:23.545Z,7.30
2022-07-25T16:25:30.076Z,7.32
2022-07-25T16:28:41.969Z,6.07
2022-07-25T16:31:47.430Z,7.88
2022-07-25T16:34:52.601Z,9.27
2022-07-25T16:37:57.586Z,7.63
2022-07-25T16:41:02.624Z,10.77
2022-07-25T16:44:10.290Z,6.68
2022-07-25T16:47:15.296Z,9.18
2022-07-25T16:50:20.348Z,6.78
2022-07-25T16:53:25.387Z,7.85
2022-07-25T16:56:30.458Z,8.40
2022-07-25T16:59:38.097Z,2.08
2022-07-25T17:02:44.026Z,7.07
2022-07-25T17:05:54.011Z,3.53
2022-07-25T17:08:59.366Z,4.32
2022-07-25T17:12:11.247Z,6.10
2022-07-25T17:15:18.963Z,4.68
2022-07-25T17:18:23.994Z,4.68
2022-07-25T17:21:29.308Z,7.22
2022-07-25T17:24:39.277Z,5.22
2022-07-25T17:27:44.527Z,3.50
2022-07-25T17:30:54.818Z,5.10
2022-07-25T17:34:00.035Z,7.32
2022-07-25T17:37:08.720Z,7.35
2022-07-25T17:40:14.284Z,4.03
2022-07-25T17:43:20.758Z,5.25
2022-07-25T17:46:28.506Z,5.22
2022-07-25T17:49:33.585Z,8.65
2022-07-25T17:52:38.660Z,5.97
2022-07-25T17:55:48.518Z,6.13
2022-07-25T17:58:53.896Z,5.35
2022-07-25T18:02:01.594Z,3.88
2022-07-25T18:05:07.795Z,5.55
2022-07-25T18:08:13.338Z,5.03
2022-07-25T18:11:18.319Z,3.45
2022-07-25T18:14:23.716Z,3.55
2022-07-25T18:17:31.257Z,2.92
2022-07-25T18:20:36.863Z,6.30
2022-07-25T18:23:44.556Z,10.77
2022-07-25T18:26:49.521Z,4.65
2022-07-25T18:29:54.515Z,3.40
2022-07-25T18:33:02.089Z,6.45
2022-07-25T18:36:08.332Z,4.20
2022-07-25T18:39:13.322Z,10.00
2022-07-25T18:42:18.283Z,7.15
2022-07-25T18:45:24.075Z,8.77
2022-07-25T18:48:32.232Z,5.47
2022-07-25T18:51:37.202Z,7.63
2022-07-25T18:54:42.188Z,6.38
2022-07-25T18:57:47.159Z,5.47
2022-07-25T19:00:52.079Z,7.88
2022-07-25T19:03:59.654Z,6.90
2022-07-25T19:07:04.677Z,8.65
2022-07-25T19:10:10.482Z,3.78
2022-07-25T19:13:39.020Z,6.93
2022-07-25T19:16:40.877Z,7.30
2022-07-25T19:19:48.663Z,7.90
2022-07-25T19:22:54.026Z,8.63
2022-07-25T19:25:59.785Z,12.60
2022-07-25T19:29:04.757Z,7.00
2022-07-25T19:32:09.803Z,11.05
2022-07-25T19:35:24.093Z,8.55
2022-07-25T19:38:31.004Z,8.95
2022-07-25T19:41:36.472Z,9.85
2022-07-25T19:44:41.487Z,10.10
2022-07-25T19:47:46.447Z,10.13
2022-07-25T19:50:54.543Z,11.32
2022-07-25T19:53:59.616Z,9.30
2022-07-25T19:57:05.839Z,8.10
2022-07-25T20:00:11.742Z,16.45
2022-07-25T20:03:16.856Z,7.70
2022-07-25T20:06:33.061Z,10.68
2022-07-25T20:09:38.236Z,7.65
2022-07-25T20:12:43.309Z,7.28
2022-07-25T20:15:48.419Z,12.85
2022-07-25T20:18:56.226Z,9.38
2022-07-25T20:22:03.800Z,17.60
2022-07-25T20:25:10.541Z,12.57
2022-07-25T20:28:16.122Z,6.35
2022-07-25T20:31:22.305Z,10.90
2022-07-25T20:34:27.382Z,10.40
2022-07-25T20:37:35.600Z,7.50
2022-07-25T20:40:49.761Z,10.02
2022-07-25T20:43:56.723Z,9.07
2022-07-25T20:47:02.030Z,10.30
2022-07-25T20:50:07.824Z,8.20
2022-07-25T20:53:18.212Z,10.52
2022-07-25T20:56:23.272Z,11.00
2022-07-25T20:59:28.338Z,10.88
2022-07-25T21:02:35.756Z,12.32
2022-07-25T21:05:43.254Z,7.55
2022-07-25T21:08:51.114Z,16.35
2022-07-25T21:12:01.163Z,11.45
2022-07-25T21:15:06.728Z,10.57
2022-07-25T21:18:15.511Z,14.68
2022-07-25T21:21:22.833Z,8.27
2022-07-25T21:24:31.562Z,9.70
2022-07-25T21:27:36.826Z,7.70
2022-07-25T21:30:42.922Z,9.15
2022-07-25T21:33:49.017Z,12.80
2022-07-25T21:36:56.976Z,8.45
2022-07-25T21:40:07.702Z,10.73
2022-07-25T21:43:15.169Z,9.00
2022-07-25T21:46:20.424Z,15.55
2022-07-25T21:49:41.975Z,5.47
2022-07-25T21:52:48.156Z,13.25
2022-07-25T21:55:55.778Z,12.80
2022-07-25T21:59:00.814Z,11.55
2022-07-25T22:02:07.009Z,9.20
2022-07-25T22:05:12.750Z,11.52
2022-07-25T22:08:17.769Z,9.38
2022-07-25T22:11:39.253Z,10.77
2022-07-25T22:14:51.410Z,8.43
2022-07-25T22:17:56.490Z,5.88
2022-07-25T22:21:03.250Z,12.60
2022-07-25T22:24:10.287Z,11.95
2022-07-25T22:27:18.146Z,9.77
2022-07-25T22:30:23.238Z,9.02
2022-07-25T22:33:31.065Z,9.98
2022-07-25T22:36:36.220Z,9.95
2022-07-25T22:39:41.172Z,22.45
2022-07-25T22:42:48.845Z,9.95
2022-07-25T22:45:54.304Z,10.15
2022-07-25T22:49:00.195Z,18.27
2022-07-25T22:52:05.299Z,7.15
2022-07-25T22:55:11.183Z,8.73
2022-07-25T22:58:19.313Z,7.13
2022-07-25T23:01:24.862Z,5.85
2022-07-25T23:04:30.012Z,10.02
2022-07-25T23:07:35.682Z,7.82
2022-07-25T23:10:40.641Z,7.88
2022-07-25T23:13:48.374Z,11.05
2022-07-25T23:17:05.949Z,6.18
2022-07-25T23:20:12.424Z,12.20
2022-07-25T23:23:17.611Z,11.07
2022-07-25T23:26:22.619Z,13.30
2022-07-25T23:29:30.361Z,10.98
2022-07-25T23:32:35.922Z,14.73
2022-07-25T23:35:42.327Z,11.45
2022-07-25T23:38:48.481Z,10.27
2022-07-25T23:41:56.049Z,9.90
2022-07-25T23:45:03.701Z,10.52
2022-07-25T23:48:11.722Z,8.73
2022-07-25T23:51:17.986Z,8.95
2022-07-25T23:54:23.248Z,8.45
2022-07-25T23:57:28.774Z,10.18
